sensor_id;sensor_type;location;lat;lon;timestamp;temperature;humidity
2571;DHT22;1295;51.130;6.732;2023-02-03T00:00:21;8.20;99.90
2571;DHT22;1295;51.130;6.732;2023-02-03T00:02:46;8.20;99.90
2571;DHT22;1295;51.130;6.732;2023-02-03T00:05:12;8.20;99.90
2571;DHT22;1295;51.130;6.732;2023-02-03T00:07:38;8.20;99.90
2571;DHT22;1295;51.130;6.732;2023-02-03T00:10:04;8.20;99.90
2571;DHT22;1295;51.130;6.732;2023-02-03T00:12:30;8.20;99.90
2571;DHT22;1295;51.130;6.732;2023-02-03T00:14:56;8.10;99.90
2571;DHT22;1295;51.130;6.732;2023-02-03T00:17:21;8.20;99.90
2571;DHT22;1295;51.130;6.732;2023-02-03T00:19:47;8.20;99.90
2571;DHT22;1295;51.130;6.732;2023-02-03T00:22:13;8.20;99.90
2571;DHT22;1295;51.130;6.732;2023-02-03T00:24:39;8.20;99.90
2571;DHT22;1295;51.130;6.732;2023-02-03T00:27:05;8.20;99.90
2571;DHT22;1295;51.130;6.732;2023-02-03T00:29:30;8.30;99.90
2571;DHT22;1295;51.130;6.732;2023-02-03T00:31:56;8.20;99.90
2571;DHT22;1295;51.130;6.732;2023-02-03T00:34:22;8.20;99.90
2571;DHT22;1295;51.130;6.732;2023-02-03T00:36:47;8.20;99.90
2571;DHT22;1295;51.130;6.732;2023-02-03T00:39:14;8.20;99.90
2571;DHT22;1295;51.130;6.732;2023-02-03T00:41:38;8.20;99.90
2571;DHT22;1295;51.130;6.732;2023-02-03T00:44:05;8.20;99.90
2571;DHT22;1295;51.130;6.732;2023-02-03T00:46:30;8.20;99.90
2571;DHT22;1295;51.130;6.732;2023-02-03T00:48:56;8.20;99.90
2571;DHT22;1295;51.130;6.732;2023-02-03T00:51:22;8.20;99.90
2571;DHT22;1295;51.130;6.732;2023-02-03T00:53:48;8.20;99.90
2571;DHT22;1295;51.130;6.732;2023-02-03T00:56:14;8.20;99.90
2571;DHT22;1295;51.130;6.732;2023-02-03T00:58:39;8.20;99.90
2571;DHT22;1295;51.130;6.732;2023-02-03T01:01:05;8.20;99.90
2571;DHT22;1295;51.130;6.732;2023-02-03T01:03:32;8.20;99.90
2571;DHT22;1295;51.130;6.732;2023-02-03T01:08:34;8.30;99.90
2571;DHT22;1295;51.130;6.732;2023-02-03T01:11:04;8.30;99.90
2571;DHT22;1295;51.130;6.732;2023-02-03T01:13:25;8.20;99.90
2571;DHT22;1295;51.130;6.732;2023-02-03T01:15:51;8.20;99.90
2571;DHT22;1295;51.130;6.732;2023-02-03T01:18:16;8.30;99.90
2571;DHT22;1295;51.130;6.732;2023-02-03T01:20:42;8.30;99.90
2571;DHT22;1295;51.130;6.732;2023-02-03T01:23:07;8.30;99.90
2571;DHT22;1295;51.130;6.732;2023-02-03T01:25:34;8.30;99.90
2571;DHT22;1295;51.130;6.732;2023-02-03T01:27:59;8.30;99.90
2571;DHT22;1295;51.130;6.732;2023-02-03T01:30:24;8.30;99.90
2571;DHT22;1295;51.130;6.732;2023-02-03T01:32:51;8.30;99.90
2571;DHT22;1295;51.130;6.732;2023-02-03T01:35:16;8.30;99.90
2571;DHT22;1295;51.130;6.732;2023-02-03T01:37:42;8.30;99.90
2571;DHT22;1295;51.130;6.732;2023-02-03T01:40:09;8.30;99.90
2571;DHT22;1295;51.130;6.732;2023-02-03T01:42:35;8.40;99.90
2571;DHT22;1295;51.130;6.732;2023-02-03T01:45:01;8.30;99.90
2571;DHT22;1295;51.130;6.732;2023-02-03T01:47:32;8.40;99.90
2571;DHT22;1295;51.130;6.732;2023-02-03T01:52:50;8.30;99.90
2571;DHT22;1295;51.130;6.732;2023-02-03T01:55:16;8.30;99.90
2571;DHT22;1295;51.130;6.732;2023-02-03T01:57:59;8.40;99.90
2571;DHT22;1295;51.130;6.732;2023-02-03T02:00:23;8.40;99.90
2571;DHT22;1295;51.130;6.732;2023-02-03T02:02:49;8.40;99.90
2571;DHT22;1295;51.130;6.732;2023-02-03T02:05:27;8.40;99.90
2571;DHT22;1295;51.130;6.732;2023-02-03T02:07:51;8.30;99.90
2571;DHT22;1295;51.130;6.732;2023-02-03T02:10:16;8.30;99.90
2571;DHT22;1295;51.130;6.732;2023-02-03T02:12:42;8.30;99.90
2571;DHT22;1295;51.130;6.732;2023-02-03T02:15:09;8.30;99.90
2571;DHT22;1295;51.130;6.732;2023-02-03T02:17:57;8.30;99.90
2571;DHT22;1295;51.130;6.732;2023-02-03T02:20:43;8.40;99.90
2571;DHT22;1295;51.130;6.732;2023-02-03T02:23:16;8.40;99.90
2571;DHT22;1295;51.130;6.732;2023-02-03T02:29:06;8.40;99.90
2571;DHT22;1295;51.130;6.732;2023-02-03T02:31:42;8.40;99.90
2571;DHT22;1295;51.130;6.732;2023-02-03T02:34:19;8.30;99.90
2571;DHT22;1295;51.130;6.732;2023-02-03T02:36:51;8.40;99.90
2571;DHT22;1295;51.130;6.732;2023-02-03T02:39:31;8.40;99.90
2571;DHT22;1295;51.130;6.732;2023-02-03T02:41:55;8.40;99.90
2571;DHT22;1295;51.130;6.732;2023-02-03T02:44:29;8.40;99.90
2571;DHT22;1295;51.130;6.732;2023-02-03T02:46:52;8.40;99.90
2571;DHT22;1295;51.130;6.732;2023-02-03T02:49:20;8.30;99.90
2571;DHT22;1295;51.130;6.732;2023-02-03T02:51:44;8.30;99.90
2571;DHT22;1295;51.130;6.732;2023-02-03T02:54:11;8.30;99.90
2571;DHT22;1295;51.130;6.732;2023-02-03T02:56:35;8.30;99.90
2571;DHT22;1295;51.130;6.732;2023-02-03T02:59:01;8.40;99.90
2571;DHT22;1295;51.130;6.732;2023-02-03T03:01:26;8.30;99.90
2571;DHT22;1295;51.130;6.732;2023-02-03T03:03:52;8.30;99.90
2571;DHT22;1295;51.130;6.732;2023-02-03T03:06:24;8.30;99.90
2571;DHT22;1295;51.130;6.732;2023-02-03T03:08:51;8.30;99.90
2571;DHT22;1295;51.130;6.732;2023-02-03T03:11:14;8.30;99.90
2571;DHT22;1295;51.130;6.732;2023-02-03T03:13:43;8.30;99.90
2571;DHT22;1295;51.130;6.732;2023-02-03T03:16:07;8.30;99.90
2571;DHT22;1295;51.130;6.732;2023-02-03T03:18:33;8.30;99.90
2571;DHT22;1295;51.130;6.732;2023-02-03T03:20:58;8.30;99.90
2571;DHT22;1295;51.130;6.732;2023-02-03T03:23:29;8.20;99.90
2571;DHT22;1295;51.130;6.732;2023-02-03T03:25:51;8.20;99.90
2571;DHT22;1295;51.130;6.732;2023-02-03T03:28:16;8.20;99.90
2571;DHT22;1295;51.130;6.732;2023-02-03T03:30:40;8.30;99.90
2571;DHT22;1295;51.130;6.732;2023-02-03T03:33:06;8.30;99.90
2571;DHT22;1295;51.130;6.732;2023-02-03T03:35:41;8.40;99.90
2571;DHT22;1295;51.130;6.732;2023-02-03T03:38:10;8.30;99.90
2571;DHT22;1295;51.130;6.732;2023-02-03T03:40:39;8.30;99.90
2571;DHT22;1295;51.130;6.732;2023-02-03T03:43:07;8.40;99.90
2571;DHT22;1295;51.130;6.732;2023-02-03T03:45:40;8.40;99.90
2571;DHT22;1295;51.130;6.732;2023-02-03T03:48:17;8.40;99.90
2571;DHT22;1295;51.130;6.732;2023-02-03T03:50:44;8.40;99.90
2571;DHT22;1295;51.130;6.732;2023-02-03T03:53:08;8.40;99.90
2571;DHT22;1295;51.130;6.732;2023-02-03T03:55:34;8.40;99.90
2571;DHT22;1295;51.130;6.732;2023-02-03T03:58:10;8.30;99.90
2571;DHT22;1295;51.130;6.732;2023-02-03T04:00:36;8.40;99.90
2571;DHT22;1295;51.130;6.732;2023-02-03T04:03:06;8.40;99.90
2571;DHT22;1295;51.130;6.732;2023-02-03T04:05:30;8.40;99.90
2571;DHT22;1295;51.130;6.732;2023-02-03T04:07:55;8.40;99.90
2571;DHT22;1295;51.130;6.732;2023-02-03T04:12:54;8.30;99.90
2571;DHT22;1295;51.130;6.732;2023-02-03T04:15:20;8.30;99.90
2571;DHT22;1295;51.130;6.732;2023-02-03T04:17:46;8.30;99.90
2571;DHT22;1295;51.130;6.732;2023-02-03T04:20:12;8.30;99.90
2571;DHT22;1295;51.130;6.732;2023-02-03T04:22:38;8.30;99.90
2571;DHT22;1295;51.130;6.732;2023-02-03T04:25:04;8.30;99.90
2571;DHT22;1295;51.130;6.732;2023-02-03T04:27:31;8.40;99.90
2571;DHT22;1295;51.130;6.732;2023-02-03T04:29:56;8.30;99.90
2571;DHT22;1295;51.130;6.732;2023-02-03T04:32:22;8.30;99.90
2571;DHT22;1295;51.130;6.732;2023-02-03T04:34:48;8.30;99.90
2571;DHT22;1295;51.130;6.732;2023-02-03T04:37:13;8.30;99.90
2571;DHT22;1295;51.130;6.732;2023-02-03T04:39:39;8.40;99.90
2571;DHT22;1295;51.130;6.732;2023-02-03T04:42:04;8.40;99.90
2571;DHT22;1295;51.130;6.732;2023-02-03T04:44:30;8.30;99.90
2571;DHT22;1295;51.130;6.732;2023-02-03T04:46:56;8.40;99.90
2571;DHT22;1295;51.130;6.732;2023-02-03T04:49:21;8.40;99.90
2571;DHT22;1295;51.130;6.732;2023-02-03T04:51:47;8.40;99.90
2571;DHT22;1295;51.130;6.732;2023-02-03T04:54:13;8.40;99.90
2571;DHT22;1295;51.130;6.732;2023-02-03T04:56:39;8.40;99.90
2571;DHT22;1295;51.130;6.732;2023-02-03T04:59:05;8.40;99.90
2571;DHT22;1295;51.130;6.732;2023-02-03T05:01:30;8.40;99.90
2571;DHT22;1295;51.130;6.732;2023-02-03T05:03:57;8.40;99.90
2571;DHT22;1295;51.130;6.732;2023-02-03T05:06:23;8.40;99.90
2571;DHT22;1295;51.130;6.732;2023-02-03T05:08:48;8.30;99.90
2571;DHT22;1295;51.130;6.732;2023-02-03T05:11:13;8.30;99.90
2571;DHT22;1295;51.130;6.732;2023-02-03T05:13:39;8.30;99.90
2571;DHT22;1295;51.130;6.732;2023-02-03T05:16:05;8.40;99.90
2571;DHT22;1295;51.130;6.732;2023-02-03T05:18:31;8.30;99.90
2571;DHT22;1295;51.130;6.732;2023-02-03T05:20:57;8.40;99.90
2571;DHT22;1295;51.130;6.732;2023-02-03T05:23:22;8.40;99.90
2571;DHT22;1295;51.130;6.732;2023-02-03T05:25:48;8.40;99.90
2571;DHT22;1295;51.130;6.732;2023-02-03T05:28:13;8.40;99.90
2571;DHT22;1295;51.130;6.732;2023-02-03T05:30:39;8.40;99.90
2571;DHT22;1295;51.130;6.732;2023-02-03T05:33:05;8.40;99.90
2571;DHT22;1295;51.130;6.732;2023-02-03T05:35:30;8.40;99.90
2571;DHT22;1295;51.130;6.732;2023-02-03T05:37:57;8.40;99.90
2571;DHT22;1295;51.130;6.732;2023-02-03T05:40:22;8.40;99.90
2571;DHT22;1295;51.130;6.732;2023-02-03T05:42:55;8.40;99.90
2571;DHT22;1295;51.130;6.732;2023-02-03T05:45:21;8.40;99.90
2571;DHT22;1295;51.130;6.732;2023-02-03T05:47:46;8.40;99.90
2571;DHT22;1295;51.130;6.732;2023-02-03T05:50:12;8.40;99.90
2571;DHT22;1295;51.130;6.732;2023-02-03T05:52:37;8.40;99.90
2571;DHT22;1295;51.130;6.732;2023-02-03T05:55:04;8.40;99.90
2571;DHT22;1295;51.130;6.732;2023-02-03T05:57:29;8.50;99.90
2571;DHT22;1295;51.130;6.732;2023-02-03T05:59:56;8.40;99.90
2571;DHT22;1295;51.130;6.732;2023-02-03T06:02:21;8.40;99.90
2571;DHT22;1295;51.130;6.732;2023-02-03T06:04:48;8.40;99.90
2571;DHT22;1295;51.130;6.732;2023-02-03T06:07:14;8.40;99.90
2571;DHT22;1295;51.130;6.732;2023-02-03T06:09:40;8.40;99.90
2571;DHT22;1295;51.130;6.732;2023-02-03T06:12:05;8.40;99.90
2571;DHT22;1295;51.130;6.732;2023-02-03T06:14:31;8.40;99.90
2571;DHT22;1295;51.130;6.732;2023-02-03T06:16:57;8.40;99.90
2571;DHT22;1295;51.130;6.732;2023-02-03T06:19:22;8.30;99.90
2571;DHT22;1295;51.130;6.732;2023-02-03T06:21:48;8.30;99.90
2571;DHT22;1295;51.130;6.732;2023-02-03T06:24:14;8.40;99.90
2571;DHT22;1295;51.130;6.732;2023-02-03T06:26:40;8.40;99.90
2571;DHT22;1295;51.130;6.732;2023-02-03T06:29:06;8.40;99.90
2571;DHT22;1295;51.130;6.732;2023-02-03T06:31:31;8.40;99.90
2571;DHT22;1295;51.130;6.732;2023-02-03T06:33:57;8.30;99.90
2571;DHT22;1295;51.130;6.732;2023-02-03T06:36:23;8.40;99.90
2571;DHT22;1295;51.130;6.732;2023-02-03T06:38:49;8.40;99.90
2571;DHT22;1295;51.130;6.732;2023-02-03T06:41:21;8.40;99.90
2571;DHT22;1295;51.130;6.732;2023-02-03T06:43:47;8.50;99.90
2571;DHT22;1295;51.130;6.732;2023-02-03T06:46:12;8.40;99.90
2571;DHT22;1295;51.130;6.732;2023-02-03T06:48:38;8.40;99.90
2571;DHT22;1295;51.130;6.732;2023-02-03T06:51:04;8.40;99.90
2571;DHT22;1295;51.130;6.732;2023-02-03T06:53:29;8.40;99.90
2571;DHT22;1295;51.130;6.732;2023-02-03T06:55:55;8.40;99.90
2571;DHT22;1295;51.130;6.732;2023-02-03T06:58:21;8.40;99.90
2571;DHT22;1295;51.130;6.732;2023-02-03T07:00:46;8.40;99.90
2571;DHT22;1295;51.130;6.732;2023-02-03T07:03:12;8.40;99.90
2571;DHT22;1295;51.130;6.732;2023-02-03T07:05:38;8.40;99.90
2571;DHT22;1295;51.130;6.732;2023-02-03T07:08:03;8.40;99.90
2571;DHT22;1295;51.130;6.732;2023-02-03T07:10:29;8.40;99.90
2571;DHT22;1295;51.130;6.732;2023-02-03T07:13:00;8.40;99.90
2571;DHT22;1295;51.130;6.732;2023-02-03T07:15:20;8.40;99.90
2571;DHT22;1295;51.130;6.732;2023-02-03T07:17:46;8.40;99.90
2571;DHT22;1295;51.130;6.732;2023-02-03T07:20:12;8.40;99.90
2571;DHT22;1295;51.130;6.732;2023-02-03T07:22:37;8.40;99.90
2571;DHT22;1295;51.130;6.732;2023-02-03T07:25:03;8.40;99.90
2571;DHT22;1295;51.130;6.732;2023-02-03T07:27:29;8.40;99.90
2571;DHT22;1295;51.130;6.732;2023-02-03T07:29:55;8.40;99.90
2571;DHT22;1295;51.130;6.732;2023-02-03T07:32:20;8.40;99.90
2571;DHT22;1295;51.130;6.732;2023-02-03T07:34:46;8.50;99.90
2571;DHT22;1295;51.130;6.732;2023-02-03T07:37:12;8.40;99.90
2571;DHT22;1295;51.130;6.732;2023-02-03T07:39:37;8.40;99.90
2571;DHT22;1295;51.130;6.732;2023-02-03T07:42:03;8.50;99.90
2571;DHT22;1295;51.130;6.732;2023-02-03T07:44:29;8.50;99.90
2571;DHT22;1295;51.130;6.732;2023-02-03T07:46:54;8.40;99.90
2571;DHT22;1295;51.130;6.732;2023-02-03T07:49:20;8.50;99.90
2571;DHT22;1295;51.130;6.732;2023-02-03T07:51:52;8.50;99.90
2571;DHT22;1295;51.130;6.732;2023-02-03T07:54:18;8.50;99.90
2571;DHT22;1295;51.130;6.732;2023-02-03T07:56:44;8.50;99.90
2571;DHT22;1295;51.130;6.732;2023-02-03T07:59:09;8.50;99.90
2571;DHT22;1295;51.130;6.732;2023-02-03T08:01:35;8.50;99.90
2571;DHT22;1295;51.130;6.732;2023-02-03T08:04:01;8.50;99.90
2571;DHT22;1295;51.130;6.732;2023-02-03T08:06:26;8.50;99.90
2571;DHT22;1295;51.130;6.732;2023-02-03T08:08:52;8.50;99.90
2571;DHT22;1295;51.130;6.732;2023-02-03T08:11:18;8.60;99.90
2571;DHT22;1295;51.130;6.732;2023-02-03T08:13:43;8.50;99.90
2571;DHT22;1295;51.130;6.732;2023-02-03T08:16:10;8.60;99.90
2571;DHT22;1295;51.130;6.732;2023-02-03T08:18:35;8.60;99.90
2571;DHT22;1295;51.130;6.732;2023-02-03T08:21:01;8.60;99.90
2571;DHT22;1295;51.130;6.732;2023-02-03T08:23:26;8.50;99.90
2571;DHT22;1295;51.130;6.732;2023-02-03T08:25:53;8.50;99.90
2571;DHT22;1295;51.130;6.732;2023-02-03T08:28:19;8.50;99.90
2571;DHT22;1295;51.130;6.732;2023-02-03T08:30:44;8.50;99.90
2571;DHT22;1295;51.130;6.732;2023-02-03T08:33:10;8.50;99.90
2571;DHT22;1295;51.130;6.732;2023-02-03T08:35:35;8.60;99.90
2571;DHT22;1295;51.130;6.732;2023-02-03T08:38:01;8.60;99.90
2571;DHT22;1295;51.130;6.732;2023-02-03T08:40:27;8.50;99.90
2571;DHT22;1295;51.130;6.732;2023-02-03T08:42:52;8.50;99.90
2571;DHT22;1295;51.130;6.732;2023-02-03T08:45:18;8.60;99.90
2571;DHT22;1295;51.130;6.732;2023-02-03T08:47:43;8.60;99.90
2571;DHT22;1295;51.130;6.732;2023-02-03T08:50:10;8.60;99.90
2571;DHT22;1295;51.130;6.732;2023-02-03T08:52:36;8.50;99.90
2571;DHT22;1295;51.130;6.732;2023-02-03T08:55:02;8.50;99.90
2571;DHT22;1295;51.130;6.732;2023-02-03T08:57:30;8.60;99.90
2571;DHT22;1295;51.130;6.732;2023-02-03T08:59:53;8.60;99.90
2571;DHT22;1295;51.130;6.732;2023-02-03T09:02:19;8.50;99.90
2571;DHT22;1295;51.130;6.732;2023-02-03T09:04:45;8.50;99.90
2571;DHT22;1295;51.130;6.732;2023-02-03T09:07:10;8.70;99.90
2571;DHT22;1295;51.130;6.732;2023-02-03T09:09:36;8.70;99.90
2571;DHT22;1295;51.130;6.732;2023-02-03T09:12:01;8.60;99.90
2571;DHT22;1295;51.130;6.732;2023-02-03T09:14:28;8.60;99.90
2571;DHT22;1295;51.130;6.732;2023-02-03T09:16:53;8.60;99.90
2571;DHT22;1295;51.130;6.732;2023-02-03T09:19:19;8.60;99.90
2571;DHT22;1295;51.130;6.732;2023-02-03T09:21:44;8.60;99.90
2571;DHT22;1295;51.130;6.732;2023-02-03T09:24:11;8.60;99.90
2571;DHT22;1295;51.130;6.732;2023-02-03T09:26:36;8.60;99.90
2571;DHT22;1295;51.130;6.732;2023-02-03T09:29:02;8.60;99.90
2571;DHT22;1295;51.130;6.732;2023-02-03T09:31:28;8.60;99.90
2571;DHT22;1295;51.130;6.732;2023-02-03T09:33:53;8.40;99.90
2571;DHT22;1295;51.130;6.732;2023-02-03T09:36:19;8.60;99.90
2571;DHT22;1295;51.130;6.732;2023-02-03T09:38:45;8.60;99.90
2571;DHT22;1295;51.130;6.732;2023-02-03T09:41:38;8.50;99.90
2571;DHT22;1295;51.130;6.732;2023-02-03T09:44:11;8.60;99.90
2571;DHT22;1295;51.130;6.732;2023-02-03T09:46:38;8.60;99.90
2571;DHT22;1295;51.130;6.732;2023-02-03T09:49:23;8.50;99.90
2571;DHT22;1295;51.130;6.732;2023-02-03T09:51:54;8.50;99.90
2571;DHT22;1295;51.130;6.732;2023-02-03T09:54:20;8.60;99.90
2571;DHT22;1295;51.130;6.732;2023-02-03T09:56:44;8.60;99.90
2571;DHT22;1295;51.130;6.732;2023-02-03T09:59:09;8.50;99.90
2571;DHT22;1295;51.130;6.732;2023-02-03T10:01:39;8.60;99.90
2571;DHT22;1295;51.130;6.732;2023-02-03T10:04:05;8.50;99.90
2571;DHT22;1295;51.130;6.732;2023-02-03T10:06:35;8.50;99.90
2571;DHT22;1295;51.130;6.732;2023-02-03T10:09:18;8.50;99.90
2571;DHT22;1295;51.130;6.732;2023-02-03T10:12:10;8.60;99.90
2571;DHT22;1295;51.130;6.732;2023-02-03T10:14:39;8.60;99.90
2571;DHT22;1295;51.130;6.732;2023-02-03T10:17:38;8.60;99.90
2571;DHT22;1295;51.130;6.732;2023-02-03T10:19:50;8.50;99.90
2571;DHT22;1295;51.130;6.732;2023-02-03T10:22:15;8.50;99.90
2571;DHT22;1295;51.130;6.732;2023-02-03T10:24:42;8.60;99.90
2571;DHT22;1295;51.130;6.732;2023-02-03T10:27:08;8.60;99.90
2571;DHT22;1295;51.130;6.732;2023-02-03T10:29:35;8.50;99.90
2571;DHT22;1295;51.130;6.732;2023-02-03T10:31:59;8.60;99.90
2571;DHT22;1295;51.130;6.732;2023-02-03T10:34:25;8.60;99.90
2571;DHT22;1295;51.130;6.732;2023-02-03T10:36:56;8.60;99.90
2571;DHT22;1295;51.130;6.732;2023-02-03T10:39:28;8.60;99.90
2571;DHT22;1295;51.130;6.732;2023-02-03T10:41:52;8.50;99.90
2571;DHT22;1295;51.130;6.732;2023-02-03T10:44:17;8.50;99.90
2571;DHT22;1295;51.130;6.732;2023-02-03T10:46:43;8.50;99.90
2571;DHT22;1295;51.130;6.732;2023-02-03T10:49:09;8.60;99.90
2571;DHT22;1295;51.130;6.732;2023-02-03T10:51:37;8.60;99.90
2571;DHT22;1295;51.130;6.732;2023-02-03T10:54:02;8.60;99.90
2571;DHT22;1295;51.130;6.732;2023-02-03T10:56:29;8.50;99.90
2571;DHT22;1295;51.130;6.732;2023-02-03T10:58:55;8.60;99.90
2571;DHT22;1295;51.130;6.732;2023-02-03T11:01:22;8.60;99.90
2571;DHT22;1295;51.130;6.732;2023-02-03T11:03:54;8.60;99.90
2571;DHT22;1295;51.130;6.732;2023-02-03T11:06:17;8.50;99.90
2571;DHT22;1295;51.130;6.732;2023-02-03T11:08:44;8.60;99.90
2571;DHT22;1295;51.130;6.732;2023-02-03T11:11:13;8.60;99.90
2571;DHT22;1295;51.130;6.732;2023-02-03T11:13:38;8.60;99.90
2571;DHT22;1295;51.130;6.732;2023-02-03T11:16:06;8.60;99.90
2571;DHT22;1295;51.130;6.732;2023-02-03T11:18:55;8.70;99.90
2571;DHT22;1295;51.130;6.732;2023-02-03T11:21:21;8.70;99.90
2571;DHT22;1295;51.130;6.732;2023-02-03T11:24:21;8.80;99.90
2571;DHT22;1295;51.130;6.732;2023-02-03T11:26:32;8.80;99.90
2571;DHT22;1295;51.130;6.732;2023-02-03T11:28:57;8.70;99.90
2571;DHT22;1295;51.130;6.732;2023-02-03T11:31:23;8.70;99.90
2571;DHT22;1295;51.130;6.732;2023-02-03T11:33:49;8.80;99.90
2571;DHT22;1295;51.130;6.732;2023-02-03T11:36:13;8.60;99.90
2571;DHT22;1295;51.130;6.732;2023-02-03T11:38:39;8.70;99.90
2571;DHT22;1295;51.130;6.732;2023-02-03T11:41:05;8.70;99.90
2571;DHT22;1295;51.130;6.732;2023-02-03T11:43:31;8.80;99.90
2571;DHT22;1295;51.130;6.732;2023-02-03T11:45:59;8.70;99.90
2571;DHT22;1295;51.130;6.732;2023-02-03T11:48:28;8.80;99.90
2571;DHT22;1295;51.130;6.732;2023-02-03T11:50:59;8.80;99.90
2571;DHT22;1295;51.130;6.732;2023-02-03T11:53:27;8.80;99.90
2571;DHT22;1295;51.130;6.732;2023-02-03T11:56:04;8.70;99.90
2571;DHT22;1295;51.130;6.732;2023-02-03T11:58:46;8.80;99.90
2571;DHT22;1295;51.130;6.732;2023-02-03T12:01:19;8.80;99.90
2571;DHT22;1295;51.130;6.732;2023-02-03T12:03:51;8.70;99.90
2571;DHT22;1295;51.130;6.732;2023-02-03T12:09:09;8.80;99.90
2571;DHT22;1295;51.130;6.732;2023-02-03T12:14:33;8.70;99.90
2571;DHT22;1295;51.130;6.732;2023-02-03T12:20:04;8.70;99.90
2571;DHT22;1295;51.130;6.732;2023-02-03T12:22:35;8.70;99.90
2571;DHT22;1295;51.130;6.732;2023-02-03T12:27:42;8.80;99.90
2571;DHT22;1295;51.130;6.732;2023-02-03T12:30:09;8.80;99.90
2571;DHT22;1295;51.130;6.732;2023-02-03T12:32:35;8.70;99.90
2571;DHT22;1295;51.130;6.732;2023-02-03T12:37:45;8.80;99.90
2571;DHT22;1295;51.130;6.732;2023-02-03T12:40:13;8.70;99.90
2571;DHT22;1295;51.130;6.732;2023-02-03T12:42:40;8.70;99.90
2571;DHT22;1295;51.130;6.732;2023-02-03T12:45:08;8.70;99.90
2571;DHT22;1295;51.130;6.732;2023-02-03T12:47:33;8.70;99.90
2571;DHT22;1295;51.130;6.732;2023-02-03T12:49:58;8.60;99.90
2571;DHT22;1295;51.130;6.732;2023-02-03T12:52:25;8.80;99.90
2571;DHT22;1295;51.130;6.732;2023-02-03T12:54:51;8.80;99.90
2571;DHT22;1295;51.130;6.732;2023-02-03T12:57:18;8.90;99.90
2571;DHT22;1295;51.130;6.732;2023-02-03T12:59:41;8.90;99.90
2571;DHT22;1295;51.130;6.732;2023-02-03T13:02:13;8.80;99.90
2571;DHT22;1295;51.130;6.732;2023-02-03T13:04:37;8.90;99.90
2571;DHT22;1295;51.130;6.732;2023-02-03T13:07:23;8.80;99.90
2571;DHT22;1295;51.130;6.732;2023-02-03T13:12:50;8.80;99.90
2571;DHT22;1295;51.130;6.732;2023-02-03T13:15:27;8.80;99.90
2571;DHT22;1295;51.130;6.732;2023-02-03T13:17:58;8.80;99.90
2571;DHT22;1295;51.130;6.732;2023-02-03T13:20:23;8.90;99.90
2571;DHT22;1295;51.130;6.732;2023-02-03T13:22:48;8.90;99.90
2571;DHT22;1295;51.130;6.732;2023-02-03T13:25:22;8.80;99.90
2571;DHT22;1295;51.130;6.732;2023-02-03T13:27:58;8.80;99.90
2571;DHT22;1295;51.130;6.732;2023-02-03T13:35:56;8.90;99.90
2571;DHT22;1295;51.130;6.732;2023-02-03T13:38:26;8.90;99.90
2571;DHT22;1295;51.130;6.732;2023-02-03T13:43:37;8.90;99.90
2571;DHT22;1295;51.130;6.732;2023-02-03T13:46:01;8.90;99.90
2571;DHT22;1295;51.130;6.732;2023-02-03T13:48:27;8.90;99.90
2571;DHT22;1295;51.130;6.732;2023-02-03T13:51:03;9.00;99.90
2571;DHT22;1295;51.130;6.732;2023-02-03T13:53:28;9.00;99.90
2571;DHT22;1295;51.130;6.732;2023-02-03T13:55:55;9.10;99.90
2571;DHT22;1295;51.130;6.732;2023-02-03T13:58:23;9.10;99.90
2571;DHT22;1295;51.130;6.732;2023-02-03T14:01:36;9.00;99.90
2571;DHT22;1295;51.130;6.732;2023-02-03T14:03:43;9.00;99.90
2571;DHT22;1295;51.130;6.732;2023-02-03T14:06:53;9.00;99.90
2571;DHT22;1295;51.130;6.732;2023-02-03T14:08:47;8.90;99.90
2571;DHT22;1295;51.130;6.732;2023-02-03T14:13:49;9.00;99.90
2571;DHT22;1295;51.130;6.732;2023-02-03T14:16:22;8.90;99.90
2571;DHT22;1295;51.130;6.732;2023-02-03T14:18:48;8.90;99.90
2571;DHT22;1295;51.130;6.732;2023-02-03T14:21:21;8.90;99.90
2571;DHT22;1295;51.130;6.732;2023-02-03T14:23:47;9.10;99.90
2571;DHT22;1295;51.130;6.732;2023-02-03T14:26:15;9.00;99.90
2571;DHT22;1295;51.130;6.732;2023-02-03T14:28:40;9.20;99.90
2571;DHT22;1295;51.130;6.732;2023-02-03T14:31:25;9.30;99.90
2571;DHT22;1295;51.130;6.732;2023-02-03T14:33:55;9.20;99.90
2571;DHT22;1295;51.130;6.732;2023-02-03T14:36:27;9.10;99.90
2571;DHT22;1295;51.130;6.732;2023-02-03T14:38:52;9.10;99.90
2571;DHT22;1295;51.130;6.732;2023-02-03T14:41:17;9.00;99.90
2571;DHT22;1295;51.130;6.732;2023-02-03T14:43:48;9.20;99.90
2571;DHT22;1295;51.130;6.732;2023-02-03T14:46:38;9.20;99.90
2571;DHT22;1295;51.130;6.732;2023-02-03T14:51:45;9.20;99.90
2571;DHT22;1295;51.130;6.732;2023-02-03T14:54:24;9.20;99.90
2571;DHT22;1295;51.130;6.732;2023-02-03T14:57:07;9.10;99.90
2571;DHT22;1295;51.130;6.732;2023-02-03T14:59:39;9.30;99.90
2571;DHT22;1295;51.130;6.732;2023-02-03T15:02:09;9.30;99.90
2571;DHT22;1295;51.130;6.732;2023-02-03T15:04:33;9.20;99.90
2571;DHT22;1295;51.130;6.732;2023-02-03T15:06:58;9.30;99.90
2571;DHT22;1295;51.130;6.732;2023-02-03T15:09:41;9.30;99.90
2571;DHT22;1295;51.130;6.732;2023-02-03T15:12:18;9.10;99.90
2571;DHT22;1295;51.130;6.732;2023-02-03T15:14:43;8.90;99.90
2571;DHT22;1295;51.130;6.732;2023-02-03T15:17:12;9.10;99.90
2571;DHT22;1295;51.130;6.732;2023-02-03T15:19:38;9.20;99.90
2571;DHT22;1295;51.130;6.732;2023-02-03T15:24:35;9.10;99.90
2571;DHT22;1295;51.130;6.732;2023-02-03T15:27:01;9.00;99.90
2571;DHT22;1295;51.130;6.732;2023-02-03T15:29:29;9.00;99.90
2571;DHT22;1295;51.130;6.732;2023-02-03T15:32:11;9.00;99.90
2571;DHT22;1295;51.130;6.732;2023-02-03T15:34:37;9.00;99.90
2571;DHT22;1295;51.130;6.732;2023-02-03T15:37:04;9.10;99.90
2571;DHT22;1295;51.130;6.732;2023-02-03T15:39:45;8.80;99.90
2571;DHT22;1295;51.130;6.732;2023-02-03T15:42:12;8.60;99.90
2571;DHT22;1295;51.130;6.732;2023-02-03T15:44:37;8.60;99.90
2571;DHT22;1295;51.130;6.732;2023-02-03T15:47:01;8.60;99.90
2571;DHT22;1295;51.130;6.732;2023-02-03T15:49:29;8.60;99.90
2571;DHT22;1295;51.130;6.732;2023-02-03T15:51:57;8.60;99.90
2571;DHT22;1295;51.130;6.732;2023-02-03T15:54:24;8.60;99.90
2571;DHT22;1295;51.130;6.732;2023-02-03T15:56:53;8.60;99.90
2571;DHT22;1295;51.130;6.732;2023-02-03T15:59:19;8.60;99.90
2571;DHT22;1295;51.130;6.732;2023-02-03T16:01:43;8.60;99.90
2571;DHT22;1295;51.130;6.732;2023-02-03T16:04:10;8.60;99.90
2571;DHT22;1295;51.130;6.732;2023-02-03T16:06:36;8.50;99.90
2571;DHT22;1295;51.130;6.732;2023-02-03T16:09:03;8.60;99.90
2571;DHT22;1295;51.130;6.732;2023-02-03T16:11:37;8.60;99.90
2571;DHT22;1295;51.130;6.732;2023-02-03T16:14:03;8.50;99.90
2571;DHT22;1295;51.130;6.732;2023-02-03T16:16:32;8.60;99.90
2571;DHT22;1295;51.130;6.732;2023-02-03T16:18:59;8.60;99.90
2571;DHT22;1295;51.130;6.732;2023-02-03T16:21:50;8.60;99.90
2571;DHT22;1295;51.130;6.732;2023-02-03T16:24:26;8.60;99.90
2571;DHT22;1295;51.130;6.732;2023-02-03T16:26:35;8.60;99.90
2571;DHT22;1295;51.130;6.732;2023-02-03T16:29:11;8.60;99.90
2571;DHT22;1295;51.130;6.732;2023-02-03T16:31:44;8.60;99.90
2571;DHT22;1295;51.130;6.732;2023-02-03T16:34:16;8.60;99.90
2571;DHT22;1295;51.130;6.732;2023-02-03T16:36:47;8.60;99.90
2571;DHT22;1295;51.130;6.732;2023-02-03T16:39:19;8.70;99.90
2571;DHT22;1295;51.130;6.732;2023-02-03T16:41:50;8.70;99.90
2571;DHT22;1295;51.130;6.732;2023-02-03T16:44:22;8.70;99.90
2571;DHT22;1295;51.130;6.732;2023-02-03T16:46:54;8.80;99.90
2571;DHT22;1295;51.130;6.732;2023-02-03T16:49:26;8.80;99.90
2571;DHT22;1295;51.130;6.732;2023-02-03T16:51:58;8.80;99.90
2571;DHT22;1295;51.130;6.732;2023-02-03T16:54:23;8.80;99.90
2571;DHT22;1295;51.130;6.732;2023-02-03T16:56:49;8.70;99.90
2571;DHT22;1295;51.130;6.732;2023-02-03T16:59:14;8.70;99.90
2571;DHT22;1295;51.130;6.732;2023-02-03T17:01:40;8.70;99.90
2571;DHT22;1295;51.130;6.732;2023-02-03T17:04:06;8.70;99.90